Time;durP1;ratioP1;P1;durP2;ratioP2;P2;SDS_P1;SDS_P2;PMS_P1;PMS_P2;Temp;Humidity;BMP_temperature;BMP_pressure;BME280_temperature;BME280_humidity;BME280_pressure;Samples;Min_cycle;Max_cycle;Signal;HPM_P1;HPM_P2
2022/10/02 00:02:18;;;;;;;2.78;1.70;;;;;;;9.11;100.00;92830.81;5034800;28;20040;-73
2022/10/02 00:05:06;;;;;;;4.38;1.58;;;;;;;9.11;100.00;92825.59;5052105;28;20372;-74
2022/10/02 00:07:40;;;;;;;3.53;1.60;;;;;;;9.13;100.00;92829.47;5033568;28;20041;-74
2022/10/02 00:10:19;;;;;;;3.00;1.60;;;;;;;9.15;100.00;92824.00;5034255;28;20033;-74
2022/10/02 00:12:49;;;;;;;2.70;1.52;;;;;;;9.13;100.00;92823.47;5052103;28;20062;-75
2022/10/02 00:15:22;;;;;;;3.08;1.60;;;;;;;9.14;100.00;92818.00;5034140;28;20032;-74
2022/10/02 00:17:52;;;;;;;2.85;1.65;;;;;;;9.13;100.00;92819.03;5034123;28;20521;-75
2022/10/02 00:20:24;;;;;;;3.45;1.90;;;;;;;9.11;100.00;92809.91;5052158;28;20043;-74
2022/10/02 00:23:06;;;;;;;3.70;1.75;;;;;;;9.08;100.00;92807.84;5051995;28;20495;-74
2022/10/02 00:26:01;;;;;;;3.22;1.52;;;;;;;9.08;100.00;92805.22;5034055;28;20106;-74
2022/10/02 00:28:58;;;;;;;3.35;1.55;;;;;;;9.03;100.00;92803.44;5038528;28;20037;-74
2022/10/02 00:31:52;;;;;;;2.15;1.45;;;;;;;9.02;100.00;92791.41;5033994;28;20402;-74
2022/10/02 00:34:27;;;;;;;2.75;1.60;;;;;;;9.02;100.00;92798.47;5051890;28;20166;-74
2022/10/02 00:37:08;;;;;;;5.95;1.73;;;;;;;8.99;100.00;92796.41;5052019;28;20106;-74
2022/10/02 00:40:01;;;;;;;7.72;1.65;;;;;;;8.98;100.00;92797.44;5051704;28;20116;-74
2022/10/02 00:42:56;;;;;;;5.05;1.60;;;;;;;8.97;100.00;92804.50;5033987;28;20251;-75
2022/10/02 00:45:59;;;;;;;3.08;1.65;;;;;;;8.95;100.00;92801.38;5051530;28;20047;-75
2022/10/02 00:48:25;;;;;;;6.03;1.60;;;;;;;8.95;100.00;92796.91;5033634;28;20384;-74
2022/10/02 00:51:25;;;;;;;6.07;1.60;;;;;;;8.95;100.00;92791.69;5033575;28;20044;-75
2022/10/02 00:54:18;;;;;;;3.38;1.98;;;;;;;8.94;100.00;92795.38;5050661;28;20060;-74
2022/10/02 00:56:55;;;;;;;2.50;1.50;;;;;;;8.94;100.00;92800.59;5051245;28;20041;-75
2022/10/02 00:59:43;;;;;;;6.78;1.75;;;;;;;8.93;100.00;92799.00;5051169;28;20039;-75
2022/10/02 01:02:35;;;;;;;2.42;1.40;;;;;;;8.93;100.00;92788.56;5051315;28;20465;-74
2022/10/02 01:05:07;;;;;;;3.20;1.73;;;;;;;8.91;100.00;92801.09;5047139;28;20048;-75
2022/10/02 01:07:37;;;;;;;3.33;1.70;;;;;;;8.91;100.00;92790.66;5033244;28;20028;-74
2022/10/02 01:10:03;;;;;;;4.97;1.65;;;;;;;8.91;100.00;92806.34;5051132;28;20033;-74
2022/10/02 01:12:29;;;;;;;5.53;1.65;;;;;;;8.89;100.00;92803.22;5033452;28;20132;-74
2022/10/02 01:14:54;;;;;;;2.90;1.42;;;;;;;8.88;100.00;92801.66;5051029;28;20115;-75
2022/10/02 01:17:22;;;;;;;2.90;1.52;;;;;;;8.90;100.00;92796.94;5050694;28;20140;-74
2022/10/02 01:19:48;;;;;;;2.50;1.42;;;;;;;8.92;100.00;92796.69;5051087;28;20025;-74
2022/10/02 01:22:26;;;;;;;2.67;1.60;;;;;;;9.00;100.00;92797.94;5051253;28;20043;-74
2022/10/02 01:24:57;;;;;;;3.03;1.70;;;;;;;9.06;100.00;92796.88;5051037;28;20044;-75
2022/10/02 01:27:23;;;;;;;1.83;1.30;;;;;;;9.08;100.00;92792.19;5033088;28;20045;-75
2022/10/02 01:30:03;;;;;;;3.10;1.52;;;;;;;9.04;100.00;92802.38;5051001;28;20469;-75
2022/10/02 01:32:30;;;;;;;3.20;1.42;;;;;;;9.00;100.00;92805.78;5051593;28;20045;-74
2022/10/02 01:34:58;;;;;;;6.97;1.60;;;;;;;8.98;100.00;92815.72;5033307;28;20524;-75
2022/10/02 01:37:28;;;;;;;3.38;1.52;;;;;;;8.98;100.00;92810.50;5051048;28;20041;-75
2022/10/02 01:40:00;;;;;;;2.45;1.50;;;;;;;9.00;100.00;92803.16;5051344;28;20036;-75
2022/10/02 01:42:26;;;;;;;3.97;1.50;;;;;;;9.00;100.00;92809.16;5051023;28;20045;-75
2022/10/02 01:44:52;;;;;;;3.50;1.60;;;;;;;9.01;100.00;92812.59;5051306;28;20044;-75
2022/10/02 01:47:42;;;;;;;4.72;1.40;;;;;;;8.99;100.00;92819.91;5033038;28;20033;-75
2022/10/02 01:50:17;;;;;;;2.85;1.60;;;;;;;8.92;100.00;92818.34;5050278;28;20052;-75
2022/10/02 01:53:09;;;;;;;2.78;1.67;;;;;;;8.91;100.00;92821.22;5050990;28;20435;-75
2022/10/02 01:56:06;;;;;;;4.78;1.65;;;;;;;8.91;100.00;92816.00;5017038;28;20106;-74
2022/10/02 01:58:52;;;;;;;3.13;1.65;;;;;;;8.92;100.00;92812.34;5016620;28;20353;-75
2022/10/02 02:01:23;;;;;;;3.22;1.70;;;;;;;8.93;100.00;92813.91;5050648;28;20072;-74
2022/10/02 02:04:01;;;;;;;2.73;1.50;;;;;;;8.91;100.00;92808.94;5050819;28;20068;-75
2022/10/02 02:06:56;;;;;;;2.63;1.60;;;;;;;8.91;100.00;92816.78;5053945;28;20275;-75
2022/10/02 02:09:44;;;;;;;2.38;1.35;;;;;;;8.91;100.00;92811.56;5051987;28;20104;-75
2022/10/02 02:12:41;;;;;;;2.78;1.50;;;;;;;8.87;100.00;92810.53;5054539;28;20397;-74
2022/10/02 02:15:17;;;;;;;3.25;1.55;;;;;;;8.91;100.00;92800.34;5054304;28;20041;-75
2022/10/02 02:17:52;;;;;;;3.78;1.45;;;;;;;8.90;100.00;92793.56;5054428;28;20029;-75
2022/10/02 02:20:27;;;;;;;2.90;1.50;;;;;;;8.90;100.00;92801.41;5054375;28;20036;-75
2022/10/02 02:22:57;;;;;;;6.07;1.58;;;;;;;8.90;100.00;92804.78;5036408;28;20120;-75
2022/10/02 02:25:30;;;;;;;3.75;1.88;;;;;;;8.91;100.00;92810.78;5054268;28;20052;-75
2022/10/02 02:27:59;;;;;;;3.72;1.80;;;;;;;8.91;100.00;92806.34;5052324;28;20083;-75
2022/10/02 02:30:27;;;;;;;4.95;1.48;;;;;;;8.98;100.00;92805.25;5000123;28;20550;-75
2022/10/02 02:32:59;;;;;;;3.13;1.50;;;;;;;9.01;100.00;92815.19;5016416;28;20040;-75
2022/10/02 02:35:32;;;;;;;2.47;1.42;;;;;;;9.04;100.00;92812.81;5034182;28;20037;-74
2022/10/02 02:38:05;;;;;;;4.22;1.40;;;;;;;9.04;100.00;92815.41;5032876;28;20041;-75
2022/10/02 02:40:34;;;;;;;2.92;1.40;;;;;;;9.05;100.00;92810.97;5033993;28;20033;-74
2022/10/02 02:43:07;;;;;;;2.05;1.20;;;;;;;9.06;100.00;92817.78;5034140;28;20026;-74
2022/10/02 02:45:43;;;;;;;3.70;1.40;;;;;;;9.04;100.00;92820.66;4999902;28;20029;-75
2022/10/02 02:48:19;;;;;;;2.70;1.40;;;;;;;9.03;100.00;92821.72;5033997;28;20048;-75
2022/10/02 02:51:08;;;;;;;2.75;1.33;;;;;;;9.03;100.00;92826.13;5033819;28;20037;-74
2022/10/02 02:53:43;;;;;;;3.13;1.00;;;;;;;9.07;100.00;92819.31;5033438;28;20239;-75
2022/10/02 02:56:14;;;;;;;1.23;1.00;;;;;;;9.16;100.00;92820.31;5033570;28;20122;-75
2022/10/02 02:59:09;;;;;;;4.15;1.20;;;;;;;9.18;100.00;92821.63;5016002;28;20064;-75
2022/10/02 03:01:34;;;;;;;2.03;1.27;;;;;;;9.18;100.00;92832.06;5033750;28;20038;-75
2022/10/02 03:04:00;;;;;;;1.92;1.10;;;;;;;9.18;100.00;92834.69;5016330;28;20507;-75
2022/10/02 03:06:39;;;;;;;3.20;1.10;;;;;;;9.19;100.00;92832.88;5033507;28;20033;-74
2022/10/02 03:09:09;;;;;;;2.25;1.27;;;;;;;9.18;100.00;92839.91;5015647;28;20570;-74
2022/10/02 03:11:43;;;;;;;5.00;1.45;;;;;;;9.21;100.00;92836.00;5015885;28;20049;-75
2022/10/02 03:14:29;;;;;;;2.10;1.20;;;;;;;9.38;100.00;92841.63;5033403;28;20047;-75
2022/10/02 03:17:10;;;;;;;4.10;1.30;;;;;;;9.40;100.00;92846.59;5014641;28;20041;-75
2022/10/02 03:19:59;;;;;;;2.92;1.30;;;;;;;9.37;100.00;92853.16;5015861;28;20025;-75
2022/10/02 03:22:53;;;;;;;2.03;1.08;;;;;;;9.34;100.00;92848.47;5015563;28;20041;-75
2022/10/02 03:26:01;;;;;;;2.58;1.02;;;;;;;9.28;100.00;92849.53;5015481;28;20037;-75
2022/10/02 03:28:34;;;;;;;1.63;1.10;;;;;;;9.27;100.00;92855.03;4999546;28;20057;-75
2022/10/02 03:30:59;;;;;;;4.22;1.10;;;;;;;9.26;100.00;92848.25;5015575;28;20041;-75
2022/10/02 03:33:27;;;;;;;2.60;1.33;;;;;;;9.25;100.00;92857.91;4999278;28;20088;-75
2022/10/02 03:35:54;;;;;;;2.50;1.20;;;;;;;9.25;100.00;92857.91;4983089;28;20479;-75
2022/10/02 03:38:22;;;;;;;2.00;1.20;;;;;;;9.21;100.00;92853.47;5015386;28;20491;-75
2022/10/02 03:40:51;;;;;;;3.63;1.38;;;;;;;9.21;100.00;92856.91;5033048;28;20180;-75
2022/10/02 03:43:21;;;;;;;1.80;1.13;;;;;;;9.19;100.00;92853.75;5032926;28;20037;-75
2022/10/02 03:45:48;;;;;;;2.70;1.38;;;;;;;9.19;100.00;92859.00;5032839;28;20049;-75
2022/10/02 03:48:14;;;;;;;2.03;1.10;;;;;;;9.21;100.00;92858.69;5014954;28;20044;-75
2022/10/02 03:50:40;;;;;;;2.35;1.25;;;;;;;9.20;100.00;92854.53;5015223;28;20033;-75
2022/10/02 03:53:14;;;;;;;2.17;1.25;;;;;;;9.21;100.00;92861.31;4998678;28;20034;-75
2022/10/02 03:55:47;;;;;;;1.50;1.10;;;;;;;9.22;100.00;92862.88;5032556;28;20080;-75
2022/10/02 03:58:15;;;;;;;5.10;1.40;;;;;;;9.18;100.00;92854.78;5032487;28;20034;-75
2022/10/02 04:01:12;;;;;;;1.85;1.20;;;;;;;9.21;100.00;92851.66;5032381;28;20083;-74
2022/10/02 04:03:46;;;;;;;1.17;0.80;;;;;;;9.29;100.00;92853.69;5020535;28;20124;-75
2022/10/02 04:06:17;;;;;;;0.93;0.70;;;;;;;9.38;100.00;92854.69;5032350;28;20071;-75
2022/10/02 04:08:43;;;;;;;0.60;0.60;;;;;;;9.43;100.00;92850.50;5014786;28;20044;-76
2022/10/02 04:11:33;;;;;;;0.75;0.60;;;;;;;9.48;100.00;92855.69;5014605;28;20407;-76
2022/10/02 04:14:08;;;;;;;0.65;0.57;;;;;;;9.54;100.00;92860.63;5032391;28;20057;-76
2022/10/02 04:16:51;;;;;;;0.75;0.70;;;;;;;9.66;100.00;92860.31;5014684;28;20531;-75
2022/10/02 04:19:28;;;;;;;0.60;0.60;;;;;;;9.77;100.00;92858.41;5014553;28;20025;-75
2022/10/02 04:22:14;;;;;;;3.90;0.60;;;;;;;9.80;100.00;92866.50;5014980;28;20143;-75
2022/10/02 04:24:52;;;;;;;0.60;0.60;;;;;;;9.83;100.00;92864.38;5032104;28;20025;-76
2022/10/02 04:27:32;;;;;;;4.22;0.68;;;;;;;9.86;100.00;92871.69;5031748;28;20041;-75
2022/10/02 04:30:02;;;;;;;0.93;0.80;;;;;;;9.89;100.00;92871.16;5031728;28;20044;-76
2022/10/02 04:32:32;;;;;;;1.55;0.68;;;;;;;9.92;100.00;92870.59;5032037;28;20034;-76
2022/10/02 04:34:58;;;;;;;0.43;0.43;;;;;;;9.94;100.00;92866.66;5014451;28;20305;-76
2022/10/02 04:37:35;;;;;;;0.90;0.70;;;;;;;9.94;100.00;92869.28;5014288;28;20025;-76
2022/10/02 04:40:26;;;;;;;0.60;0.60;;;;;;;9.96;100.00;92871.63;5014049;28;20038;-76
2022/10/02 04:42:58;;;;;;;0.50;0.50;;;;;;;10.05;100.00;92864.75;4997620;28;20033;-76
2022/10/02 04:45:48;;;;;;;0.60;0.60;;;;;;;10.14;100.00;92863.13;5031759;28;20033;-75
2022/10/02 04:48:17;;;;;;;0.47;0.47;;;;;;;10.15;100.00;92869.91;5031869;28;20037;-74
2022/10/02 04:50:54;;;;;;;0.73;0.65;;;;;;;10.22;100.00;92869.59;5014139;28;20044;-75
2022/10/02 04:53:23;;;;;;;1.70;1.02;;;;;;;10.57;100.00;92871.16;5014146;28;20069;-75
2022/10/02 04:56:22;;;;;;;3.17;1.10;;;;;;;10.55;100.00;92870.66;5028998;28;20073;-75
2022/10/02 04:59:07;;;;;;;1.13;0.80;;;;;;;10.50;100.00;92867.31;5051602;28;20487;-75
2022/10/02 05:01:50;;;;;;;2.40;0.80;;;;;;;10.44;100.00;92882.25;5033617;28;20039;-74
2022/10/02 05:04:24;;;;;;;1.90;1.15;;;;;;;10.37;100.00;92876.56;5051503;28;20029;-74
2022/10/02 05:07:28;;;;;;;1.10;0.95;;;;;;;10.29;100.00;92871.91;5033727;28;20028;-74
2022/10/02 05:10:31;;;;;;;0.75;0.70;;;;;;;10.20;100.00;92869.88;5033346;28;20068;-75
2022/10/02 05:12:59;;;;;;;1.15;0.93;;;;;;;10.19;100.00;92876.16;5033530;28;20380;-74
2022/10/02 05:15:43;;;;;;;1.27;0.73;;;;;;;10.18;100.00;92877.22;5033185;28;20037;-74
2022/10/02 05:18:33;;;;;;;2.03;0.90;;;;;;;10.15;100.00;92890.81;5033390;28;20043;-74
2022/10/02 05:21:22;;;;;;;1.30;0.93;;;;;;;10.09;100.00;92897.16;5033171;28;20052;-74
2022/10/02 05:23:50;;;;;;;0.57;0.50;;;;;;;10.10;100.00;92893.50;5051089;28;20086;-75
2022/10/02 05:26:44;;;;;;;0.93;0.60;;;;;;;10.13;100.00;92895.56;5051053;28;20044;-74
2022/10/02 05:29:36;;;;;;;0.60;0.60;;;;;;;10.19;100.00;92907.53;5007764;28;20096;-75
2022/10/02 05:32:35;;;;;;;0.77;0.63;;;;;;;10.27;100.00;92913.25;5026324;28;20493;-75
2022/10/02 05:35:22;;;;;;;5.68;0.80;;;;;;;10.29;100.00;92913.78;5050845;28;20041;-76
2022/10/02 05:38:21;;;;;;;0.90;0.80;;;;;;;10.33;100.00;92918.19;5050695;28;20068;-76
2022/10/02 05:41:02;;;;;;;0.93;0.65;;;;;;;10.73;100.00;92912.91;5035226;28;20051;-76
2022/10/02 05:43:36;;;;;;;1.35;0.75;;;;;;;11.65;100.00;92923.19;5037197;28;20087;-76
2022/10/02 05:46:24;;;;;;;0.60;0.60;;;;;;;12.47;100.00;92910.78;5055773;28;20510;-78
2022/10/02 05:49:06;;;;;;;2.45;0.77;;;;;;;13.18;97.42;92905.38;5057295;28;20517;-79
2022/10/02 05:51:52;;;;;;;3.37;0.83;;;;;;;13.89;96.33;92911.09;5040701;28;20508;-78
2022/10/02 05:54:36;;;;;;;1.13;0.88;;;;;;;14.48;91.18;92908.50;5040598;28;20037;-79
2022/10/02 05:57:25;;;;;;;1.27;0.60;;;;;;;15.17;87.14;92924.72;5058868;28;20103;-80
2022/10/02 05:59:56;;;;;;;1.42;0.70;;;;;;;15.89;86.63;92927.31;5058560;28;20037;-80
2022/10/02 06:02:40;;;;;;;1.73;0.60;;;;;;;16.49;79.29;92928.47;5059468;28;20101;-80
2022/10/02 06:05:37;;;;;;;0.93;0.70;;;;;;;17.11;74.67;92930.72;5057506;28;20033;-80
2022/10/02 06:08:08;;;;;;;1.10;0.70;;;;;;;17.64;74.50;92926.03;5035658;28;20048;-80
2022/10/02 06:10:45;;;;;;;1.05;0.60;;;;;;;18.30;72.33;92931.56;5040519;28;20124;-79
2022/10/02 06:13:34;;;;;;;0.40;0.40;;;;;;;18.92;68.53;92945.91;5039722;28;20041;-80
2022/10/02 06:16:23;;;;;;;1.70;0.90;;;;;;;19.46;64.17;92941.63;5045731;28;20036;-80
2022/10/02 06:19:06;;;;;;;3.38;0.80;;;;;;;19.58;63.49;92941.63;5060137;28;20024;-80
2022/10/02 06:21:58;;;;;;;0.95;0.75;;;;;;;19.92;64.67;92940.44;5078033;28;20032;-80
2022/10/02 06:24:35;;;;;;;3.40;0.80;;;;;;;20.59;61.92;92948.13;5060209;28;20043;-80
2022/10/02 06:27:10;;;;;;;1.58;0.98;;;;;;;21.13;60.27;92946.94;5078056;28;20036;-80
2022/10/02 06:29:47;;;;;;;5.30;1.00;;;;;;;21.65;59.15;92953.97;5063126;28;20119;-82
2022/10/02 06:32:42;;;;;;;1.85;0.90;;;;;;;22.20;54.68;92949.53;5058355;28;20032;-80
2022/10/02 06:35:14;;;;;;;3.65;0.80;;;;;;;22.61;53.00;92952.72;5047083;28;20105;-80
2022/10/02 06:38:00;;;;;;;;;;;;;;;23.04;51.79;92939.50;5046156;28;20037;-80
2022/10/02 06:40:44;;;;;;;1.63;1.10;;;;;;;23.79;49.84;92943.47;5057411;28;19912;-81
2022/10/02 06:43:39;;;;;;;2.10;1.10;;;;;;;24.08;46.43;92954.63;5029318;28;20133;-83
2022/10/02 06:46:48;;;;;;;3.50;1.10;;;;;;;24.49;47.23;92954.84;5045658;28;20455;-81
2022/10/02 06:49:23;;;;;;;2.80;1.30;;;;;;;24.96;45.19;92964.22;5047620;28;20115;-83
2022/10/02 06:52:08;;;;;;;5.82;1.27;;;;;;;25.52;42.89;92947.25;5058646;28;20036;-82
2022/10/02 06:54:47;;;;;;;2.17;1.30;;;;;;;25.77;42.58;92941.34;5057963;28;20053;-82
2022/10/02 06:57:25;;;;;;;2.00;1.23;;;;;;;25.87;42.37;92943.38;5040561;28;20032;-83
2022/10/02 07:00:15;;;;;;;3.83;1.20;;;;;;;26.36;41.99;92944.88;5050230;28;20029;-83
2022/10/02 07:03:23;;;;;;;4.07;1.30;;;;;;;26.82;41.02;92951.69;5054007;28;20056;-82
2022/10/02 07:05:55;;;;;;;3.03;1.20;;;;;;;27.13;40.50;92946.78;4973403;28;20049;-83
2022/10/02 07:08:27;;;;;;;3.05;1.25;;;;;;;27.52;40.60;92952.31;4959458;28;20039;-82
2022/10/02 07:11:21;;;;;;;2.28;1.05;;;;;;;27.61;40.30;92950.00;4997854;28;20069;-82
2022/10/02 07:13:57;;;;;;;5.28;1.65;;;;;;;27.16;39.82;92948.75;5026797;28;20036;-80
2022/10/02 07:16:50;;;;;;;3.17;1.20;;;;;;;26.56;42.61;92953.44;5056500;28;20525;-84
2022/10/02 07:19:34;;;;;;;32.40;17.50;;;;;;;26.17;41.24;92953.94;5061109;28;20517;-77
2022/10/02 07:22:28;;;;;;;21.67;7.45;;;;;;;24.41;46.09;92934.44;5034071;28;20041;-77
2022/10/02 07:25:31;;;;;;;10.23;5.40;;;;;;;22.31;51.17;92949.03;5063841;28;20076;-77
2022/10/02 07:27:57;;;;;;;4.43;1.65;;;;;;;21.30;54.00;92943.97;5015531;28;20029;-77
2022/10/02 07:30:22;;;;;;;21.58;10.45;;;;;;;20.85;57.05;92944.25;5018819;28;20075;-75
2022/10/02 07:32:59;;;;;;;8.98;2.30;;;;;;;20.81;57.13;92941.53;5050012;28;20499;-75
2022/10/02 07:35:36;;;;;;;6.18;1.20;;;;;;;21.15;56.61;92942.81;5046075;28;20033;-75
2022/10/02 07:38:42;;;;;;;3.15;1.20;;;;;;;21.68;54.01;92928.53;5032931;28;20033;-76
2022/10/02 07:41:41;;;;;;;5.90;1.30;;;;;;;21.68;53.85;92926.63;5036977;28;20395;-76
2022/10/02 07:44:10;;;;;;;4.75;1.80;;;;;;;21.11;54.91;92936.59;5033837;28;20498;-76
2022/10/02 07:47:01;;;;;;;9.48;3.40;;;;;;;20.67;58.98;92938.44;5033138;28;20134;-76
2022/10/02 07:49:35;;;;;;;6.15;2.05;;;;;;;20.70;58.48;92938.56;5048797;28;20033;-76
2022/10/02 07:52:25;;;;;;;3.40;1.80;;;;;;;20.13;60.00;92944.88;5017493;28;20509;-76
2022/10/02 07:55:12;;;;;;;5.00;1.73;;;;;;;20.72;60.34;92940.91;5051554;28;20076;-74
2022/10/02 07:57:45;;;;;;;3.78;0.98;;;;;;;21.05;55.28;92945.94;5077576;28;20112;-75
2022/10/02 08:00:17;;;;;;;2.72;0.75;;;;;;;21.44;53.71;92938.25;5055737;28;20035;-76
2022/10/02 08:03:07;;;;;;;8.85;2.40;;;;;;;21.31;55.63;92945.50;5045275;28;20121;-76
2022/10/02 08:05:41;;;;;;;7.50;1.90;;;;;;;20.25;58.95;92954.72;5049868;28;20028;-76
2022/10/02 08:08:29;;;;;;;4.10;1.80;;;;;;;19.84;61.08;92959.19;5052178;28;20045;-76
2022/10/02 08:11:01;;;;;;;4.07;2.05;;;;;;;19.53;62.76;92976.38;5034361;28;20036;-75
2022/10/02 08:13:33;;;;;;;2.78;1.40;;;;;;;19.50;61.59;92982.34;5048371;28;20068;-75
2022/10/02 08:16:05;;;;;;;4.47;1.70;;;;;;;18.83;65.39;92990.31;5012853;28;20072;-75
2022/10/02 08:18:33;;;;;;;2.97;1.47;;;;;;;18.49;65.49;92994.75;5032403;28;20033;-76
2022/10/02 08:21:00;;;;;;;6.32;1.67;;;;;;;18.27;68.49;92992.41;5034506;28;20370;-76
2022/10/02 08:23:44;;;;;;;6.50;1.63;;;;;;;18.64;66.48;92997.91;5070680;28;20071;-76
2022/10/02 08:26:18;;;;;;;2.78;1.10;;;;;;;18.85;62.76;92997.94;5036838;28;20080;-76
2022/10/02 08:28:53;;;;;;;3.03;0.98;;;;;;;18.71;59.44;92992.84;5066183;28;20056;-76
2022/10/02 08:31:18;;;;;;;2.40;0.82;;;;;;;19.03;59.25;92988.75;5050955;28;20037;-76
2022/10/02 08:33:44;;;;;;;5.43;2.38;;;;;;;19.07;65.89;92992.28;5037395;28;20036;-76
2022/10/02 08:36:34;;;;;;;3.65;1.60;;;;;;;19.09;66.02;92989.28;5047897;28;20045;-75
2022/10/02 08:39:30;;;;;;;4.63;1.52;;;;;;;19.28;63.91;92991.47;5031814;28;20040;-76
2022/10/02 08:42:29;;;;;;;2.50;1.40;;;;;;;19.23;65.42;92987.16;5051556;28;20380;-75
2022/10/02 08:45:07;;;;;;;7.88;1.70;;;;;;;19.07;66.94;92989.66;5050311;28;20037;-76
2022/10/02 08:48:06;;;;;;;5.28;2.10;;;;;;;18.78;68.82;92985.22;5026296;28;20085;-76
2022/10/02 08:50:32;;;;;;;4.53;1.65;;;;;;;18.57;68.98;92979.88;5030558;28;20077;-76
2022/10/02 08:53:12;;;;;;;2.65;1.42;;;;;;;18.59;67.99;92982.97;5057865;28;20161;-76
2022/10/02 08:56:06;;;;;;;5.97;1.73;;;;;;;18.85;69.54;92977.50;5051657;28;20136;-76
2022/10/02 08:58:49;;;;;;;4.72;2.63;;;;;;;18.20;73.30;92978.88;5052597;28;20043;-76
2022/10/02 09:01:20;;;;;;;10.73;7.03;;;;;;;17.94;74.83;92979.78;5051578;28;20091;-76
2022/10/02 09:04:01;;;;;;;5.50;2.28;;;;;;;18.02;75.73;92984.28;5052239;28;20025;-75
2022/10/02 09:07:03;;;;;;;3.10;1.90;;;;;;;18.03;73.74;92982.41;5033626;28;20036;-75
2022/10/02 09:10:03;;;;;;;4.18;2.30;;;;;;;18.53;72.19;92968.38;5031243;28;20059;-75
2022/10/02 09:13:17;;;;;;;5.57;1.83;;;;;;;18.88;70.13;92971.53;5069175;28;20058;-76
2022/10/02 09:15:46;;;;;;;3.67;1.85;;;;;;;18.58;71.69;92970.81;5052591;28;20028;-76
2022/10/02 09:18:30;;;;;;;7.90;1.80;;;;;;;18.61;73.03;92974.72;5027654;28;20013;-75
2022/10/02 09:21:34;;;;;;;8.50;1.95;;;;;;;18.63;73.10;92972.50;5017659;28;20102;-76
2022/10/02 09:24:54;;;;;;;6.22;1.90;;;;;;;18.57;73.07;92971.91;4995319;28;20049;-76
2022/10/02 09:27:57;;;;;;;4.82;2.17;;;;;;;18.40;73.41;92966.75;4989393;28;20527;-76
2022/10/02 09:30:51;;;;;;;5.80;1.90;;;;;;;18.24;73.58;92971.84;5021554;28;20499;-76
2022/10/02 09:33:54;;;;;;;5.13;1.73;;;;;;;18.56;73.28;92966.94;5049705;28;20029;-76
2022/10/02 09:36:57;;;;;;;8.38;3.08;;;;;;;18.79;70.50;92962.88;5033061;28;20098;-76
2022/10/02 09:39:36;;;;;;;4.90;1.80;;;;;;;19.14;70.62;92963.34;5050638;28;20059;-75
2022/10/02 09:42:29;;;;;;;4.60;1.90;;;;;;;19.27;67.68;92953.53;5031176;28;20065;-75
2022/10/02 09:45:17;;;;;;;4.15;1.67;;;;;;;19.45;67.90;92963.97;5030246;28;20037;-78
2022/10/02 09:48:04;;;;;;;4.63;1.40;;;;;;;20.12;65.29;92967.22;5035568;28;20115;-76
2022/10/02 09:50:41;;;;;;;4.28;1.63;;;;;;;20.64;64.42;92963.84;5034219;28;20040;-77
2022/10/02 09:53:38;;;;;;;3.13;1.58;;;;;;;20.95;62.81;92965.84;5033368;28;20430;-76
2022/10/02 09:56:34;;;;;;;2.80;1.73;;;;;;;20.79;62.65;92957.03;5016150;28;20283;-77
2022/10/02 09:59:22;;;;;;;3.05;1.70;;;;;;;19.97;65.44;92958.03;5006622;28;20120;-77
2022/10/02 10:01:53;;;;;;;5.20;1.90;;;;;;;19.71;66.55;92961.81;5013627;28;20043;-76
2022/10/02 10:04:34;;;;;;;5.35;2.00;;;;;;;19.33;67.10;92952.22;5006965;28;20037;-76
2022/10/02 10:07:42;;;;;;;9.02;3.60;;;;;;;19.02;69.20;92957.22;5030721;28;20037;-76
2022/10/02 10:10:18;;;;;;;4.05;2.20;;;;;;;19.04;66.23;92950.47;4949439;28;20128;-76
2022/10/02 10:13:43;;;;;;;3.80;1.77;;;;;;;19.24;68.17;92954.19;5015851;28;20104;-76
2022/10/02 10:16:20;;;;;;;4.55;1.80;;;;;;;19.18;64.88;92950.19;4926976;28;20055;-76
2022/10/02 10:18:49;;;;;;;5.35;1.83;;;;;;;19.38;66.33;92953.13;5030904;28;20048;-76
2022/10/02 10:21:49;;;;;;;2.97;1.73;;;;;;;19.38;64.71;92950.47;5029656;28;20037;-77
2022/10/02 10:24:25;;;;;;;3.67;1.90;;;;;;;19.25;66.95;92947.00;5013267;28;20087;-76
2022/10/02 10:27:05;;;;;;;3.67;1.83;;;;;;;19.48;66.66;92950.03;5011892;28;20038;-76
2022/10/02 10:30:12;;;;;;;5.30;1.90;;;;;;;19.42;66.81;92948.69;5028357;28;20099;-76
2022/10/02 10:33:00;;;;;;;3.20;1.58;;;;;;;19.47;67.25;92945.81;5041948;28;20033;-76
2022/10/02 10:35:56;;;;;;;4.40;2.05;;;;;;;19.44;66.09;92946.50;5053986;28;20044;-76
2022/10/02 10:38:44;;;;;;;4.35;1.65;;;;;;;19.40;66.46;92946.38;5021347;28;20165;-76
2022/10/02 10:41:25;;;;;;;10.90;2.13;;;;;;;18.91;68.79;92941.72;5017661;28;20046;-76
2022/10/02 10:44:16;;;;;;;3.22;1.70;;;;;;;19.00;68.73;92941.63;5016518;28;20474;-75
2022/10/02 10:47:17;;;;;;;3.80;1.90;;;;;;;19.06;66.37;92936.91;5018692;28;20042;-76
2022/10/02 10:50:01;;;;;;;2.50;1.38;;;;;;;19.11;66.39;92942.75;4988832;28;20385;-76
2022/10/02 10:52:36;;;;;;;3.40;1.60;;;;;;;19.01;67.65;92939.75;5016722;28;20108;-76
2022/10/02 10:55:58;;;;;;;5.50;1.88;;;;;;;19.27;68.33;92945.59;5032980;28;20650;-76
2022/10/02 10:58:38;;;;;;;3.17;1.60;;;;;;;19.34;67.27;92937.84;4995035;28;20095;-76
2022/10/02 11:01:15;;;;;;;6.90;1.80;;;;;;;19.22;66.19;92939.69;5026255;28;20041;-76
2022/10/02 11:03:57;;;;;;;6.60;1.70;;;;;;;19.23;66.82;92939.38;5013191;28;20052;-76
2022/10/02 11:06:55;;;;;;;8.18;2.55;;;;;;;19.08;66.93;92940.00;5012276;28;20030;-76
2022/10/02 11:09:25;;;;;;;3.17;1.75;;;;;;;19.40;64.47;92935.75;5019242;28;21939;-76
2022/10/02 11:12:27;;;;;;;6.38;2.10;;;;;;;19.30;65.92;92938.84;5036429;28;20037;-76
2022/10/02 11:15:27;;;;;;;3.78;1.80;;;;;;;19.37;66.63;92925.78;5036640;28;20063;-76
2022/10/02 11:18:07;;;;;;;3.13;1.83;;;;;;;19.48;64.42;92926.16;4983340;28;20137;-76
2022/10/02 11:20:51;;;;;;;3.13;1.70;;;;;;;19.56;65.77;92923.38;5021543;28;20060;-76
2022/10/02 11:23:56;;;;;;;3.60;2.00;;;;;;;19.91;65.29;92922.97;5014974;28;20112;-76
2022/10/02 11:26:46;;;;;;;3.92;2.08;;;;;;;19.80;64.80;92919.22;5033882;28;20086;-76
2022/10/02 11:29:33;;;;;;;7.47;1.77;;;;;;;19.78;65.30;92918.75;5032837;28;20029;-76
2022/10/02 11:32:16;;;;;;;3.70;1.77;;;;;;;19.76;66.13;92916.44;5024560;28;20048;-76
2022/10/02 11:34:48;;;;;;;5.90;2.10;;;;;;;19.39;66.04;92912.97;5013254;28;20121;-75
2022/10/02 11:37:30;;;;;;;5.25;1.60;;;;;;;19.35;66.28;92907.53;5029844;28;20047;-75
2022/10/02 11:39:55;;;;;;;5.97;2.10;;;;;;;19.20;65.85;92913.47;5047240;28;20030;-76
2022/10/02 11:42:59;;;;;;;3.70;2.05;;;;;;;19.38;64.93;92898.13;5032539;28;20665;-76
2022/10/02 11:45:50;;;;;;;4.32;2.10;;;;;;;19.41;66.70;92907.31;5030669;28;20127;-76
2022/10/02 11:48:51;;;;;;;6.38;2.67;;;;;;;19.43;65.81;92897.13;5032856;28;20092;-76
2022/10/02 11:51:37;;;;;;;6.10;2.45;;;;;;;19.68;66.23;92897.91;4996237;28;20604;-76
2022/10/02 11:54:43;;;;;;;7.97;2.50;;;;;;;19.75;66.45;92896.31;5014714;28;20041;-76
2022/10/02 11:57:40;;;;;;;7.80;3.53;;;;;;;19.39;67.72;92886.44;5030471;28;20042;-76
2022/10/02 12:00:44;;;;;;;5.00;2.40;;;;;;;19.55;65.93;92887.31;5013243;28;20018;-76
2022/10/02 12:03:36;;;;;;;6.13;2.47;;;;;;;19.42;66.86;92879.69;5020342;28;20064;-76
2022/10/02 12:06:27;;;;;;;3.90;2.10;;;;;;;19.47;66.59;92880.22;5020117;28;20368;-76
2022/10/02 12:09:26;;;;;;;4.63;2.20;;;;;;;19.32;66.94;92886.22;5029937;28;20056;-76
2022/10/02 12:12:28;;;;;;;5.05;2.85;;;;;;;19.28;67.90;92875.47;5022448;28;20068;-76
2022/10/02 12:15:06;;;;;;;7.45;4.50;;;;;;;19.44;69.43;92875.59;5031037;28;20033;-76
2022/10/02 12:17:31;;;;;;;4.80;2.30;;;;;;;19.46;66.85;92877.91;5031673;28;20026;-76
2022/10/02 12:26:59;;;;;;;4.63;2.67;;;;;;;19.43;67.64;92875.91;4963449;28;20095;-77
2022/10/02 12:29:42;;;;;;;4.80;2.30;;;;;;;19.69;67.96;92879.03;5004291;28;20053;-77
2022/10/02 12:32:08;;;;;;;3.92;2.33;;;;;;;19.67;67.49;92881.22;5017283;28;20132;-76
2022/10/02 12:34:58;;;;;;;4.85;2.80;;;;;;;19.82;65.81;92871.84;5032429;28;20112;-77
2022/10/02 12:37:48;;;;;;;5.32;2.60;;;;;;;19.66;66.45;92874.38;5041837;28;20033;-78
2022/10/02 12:40:20;;;;;;;8.88;2.60;;;;;;;19.65;67.67;92862.19;5015625;28;20036;-78
2022/10/02 12:43:01;;;;;;;8.77;2.70;;;;;;;19.81;65.43;92869.50;5015021;28;20388;-77
2022/10/02 12:45:57;;;;;;;5.40;2.90;;;;;;;19.73;66.55;92853.38;5016201;28;20184;-78
2022/10/02 12:48:23;;;;;;;4.45;2.65;;;;;;;19.78;66.23;92864.88;5016322;28;20033;-76
2022/10/02 12:51:39;;;;;;;4.13;2.50;;;;;;;19.73;66.32;92857.91;5024312;28;20487;-76